Time;durP1;ratioP1;P1;durP2;ratioP2;P2;SDS_P1;SDS_P2;PMS_P1;PMS_P2;Temp;Humidity;BMP_temperature;BMP_pressure;BME280_temperature;BME280_humidity;BME280_pressure;Samples;Min_cycle;Max_cycle;Signal;HPM_P1;HPM_P2
2020/12/05 00:01:21;;;;;;;24.58;13.68;;;;;;;5.98;72.87;96966.94;5114883;28;20050;-71
2020/12/05 00:03:47;;;;;;;25.25;13.10;;;;;;;5.95;73.26;96969.75;5114902;28;20094;-70
2020/12/05 00:06:12;;;;;;;24.13;12.48;;;;;;;5.95;73.08;96958.47;5114455;28;20047;-71
2020/12/05 00:08:38;;;;;;;22.45;12.48;;;;;;;6.03;72.85;96959.63;5113524;28;20088;-70
2020/12/05 00:11:04;;;;;;;21.25;12.00;;;;;;;6.04;72.48;96957.84;5113367;28;20051;-70
2020/12/05 00:13:30;;;;;;;23.38;13.07;;;;;;;6.07;72.86;96976.72;5114707;28;20069;-72
2020/12/05 00:15:56;;;;;;;23.60;12.45;;;;;;;5.94;73.19;96973.28;5114827;28;20058;-70
2020/12/05 00:18:22;;;;;;;24.02;13.30;;;;;;;5.85;73.47;96976.53;5114859;28;20054;-72
2020/12/05 00:20:48;;;;;;;25.42;13.82;;;;;;;5.89;73.67;96985.78;5114469;28;20621;-71
2020/12/05 00:23:14;;;;;;;24.00;13.50;;;;;;;5.91;73.52;96989.91;5113732;28;20048;-73
2020/12/05 00:25:41;;;;;;;21.92;12.27;;;;;;;5.95;73.25;96990.56;5114328;28;20508;-72
2020/12/05 00:28:06;;;;;;;23.30;12.95;;;;;;;5.98;73.09;96987.75;5114716;28;20122;-71
2020/12/05 00:30:33;;;;;;;22.50;13.15;;;;;;;5.88;73.33;96989.31;5114016;28;20044;-72
2020/12/05 00:33:00;;;;;;;23.23;13.82;;;;;;;5.88;73.63;96981.50;5114623;28;20130;-71
2020/12/05 00:35:27;;;;;;;23.23;13.20;;;;;;;5.89;73.53;96988.38;5114606;28;20088;-71
2020/12/05 00:37:54;;;;;;;21.80;12.63;;;;;;;5.94;73.58;96991.47;5114503;28;20092;-71
2020/12/05 00:40:22;;;;;;;21.90;13.20;;;;;;;5.91;73.45;96997.72;5114150;28;20474;-71
2020/12/05 00:42:48;;;;;;;21.60;12.15;;;;;;;5.72;73.52;96979.97;5113717;28;20067;-71
2020/12/05 00:45:14;;;;;;;22.98;12.30;;;;;;;5.97;73.43;97000.88;5113969;28;20063;-72
2020/12/05 00:47:40;;;;;;;21.27;11.82;;;;;;;5.84;73.74;96985.25;5112485;28;20052;-71
2020/12/05 00:50:06;;;;;;;22.85;11.98;;;;;;;5.94;73.90;96999.28;5114183;28;20169;-71
2020/12/05 00:52:32;;;;;;;21.65;12.35;;;;;;;5.95;74.03;96995.75;5113453;28;20044;-74
2020/12/05 00:54:58;;;;;;;25.60;11.93;;;;;;;5.86;74.31;96996.41;5114093;28;20504;-71
2020/12/05 00:57:23;;;;;;;17.48;11.18;;;;;;;5.82;73.90;96987.13;5113975;28;20040;-71
2020/12/05 00:59:49;;;;;;;18.02;11.20;;;;;;;5.82;74.47;96990.56;5113475;28;20040;-71
2020/12/05 01:02:15;;;;;;;20.67;12.40;;;;;;;5.74;74.67;96995.47;5095851;28;20047;-72
2020/12/05 01:04:41;;;;;;;20.35;12.43;;;;;;;5.63;75.10;96998.00;5112895;28;20505;-71
2020/12/05 01:07:07;;;;;;;20.00;10.90;;;;;;;5.34;76.51;96983.44;5113811;28;20393;-71
2020/12/05 01:09:33;;;;;;;18.45;10.95;;;;;;;5.65;75.36;96993.50;5112721;28;20050;-73
2020/12/05 01:11:59;;;;;;;19.30;11.70;;;;;;;5.92;74.42;96980.38;5112910;28;20048;-69
2020/12/05 01:14:25;;;;;;;21.48;12.10;;;;;;;5.83;74.37;96970.59;5113465;28;20356;-71
2020/12/05 01:16:51;;;;;;;18.83;11.32;;;;;;;5.84;74.52;96967.03;5113220;28;20114;-70
2020/12/05 01:19:16;;;;;;;22.25;11.40;;;;;;;5.83;74.95;96975.81;5113711;28;20503;-70
2020/12/05 01:21:45;;;;;;;15.43;10.48;;;;;;;6.05;73.83;96981.16;5112861;28;20040;-71
2020/12/05 01:24:12;;;;;;;18.67;11.20;;;;;;;6.17;73.06;96984.69;5113136;28;20611;-71
2020/12/05 01:26:37;;;;;;;24.73;11.73;;;;;;;6.14;73.37;96986.69;5113032;28;20047;-72
2020/12/05 01:29:03;;;;;;;22.63;11.85;;;;;;;6.18;73.30;96981.16;5113097;28;20043;-72
2020/12/05 01:31:29;;;;;;;22.27;11.88;;;;;;;6.02;73.46;96976.19;5112903;28;20051;-70
2020/12/05 01:33:55;;;;;;;23.42;11.93;;;;;;;6.15;73.33;96990.91;5111534;28;20069;-71
2020/12/05 01:36:20;;;;;;;19.90;11.38;;;;;;;6.21;73.24;96982.66;5113612;28;20058;-71
2020/12/05 01:38:46;;;;;;;18.13;10.38;;;;;;;6.33;72.51;96967.97;5112558;28;20050;-71
2020/12/05 01:41:13;;;;;;;19.42;10.60;;;;;;;6.52;71.97;96983.06;5112843;28;20093;-72
2020/12/05 01:43:40;;;;;;;16.10;9.80;;;;;;;6.54;71.60;96983.81;5112453;28;20099;-72
2020/12/05 01:46:07;;;;;;;18.58;10.10;;;;;;;6.64;71.53;96984.78;5107570;28;20440;-72
2020/12/05 01:48:33;;;;;;;15.93;9.40;;;;;;;6.76;70.80;96975.22;5091285;28;20042;-76
2020/12/05 01:51:00;;;;;;;16.25;9.43;;;;;;;6.88;70.45;96969.09;5092294;28;20101;-70
2020/12/05 01:53:26;;;;;;;17.00;10.30;;;;;;;6.94;70.30;96975.66;5103786;28;20134;-71
2020/12/05 01:55:52;;;;;;;15.57;9.73;;;;;;;6.97;70.17;96984.06;5112513;28;20119;-71
2020/12/05 01:58:18;;;;;;;14.20;9.65;;;;;;;7.04;69.82;96974.00;5112589;28;20058;-71
2020/12/05 02:00:45;;;;;;;15.48;9.02;;;;;;;6.93;70.56;96976.59;5112269;28;20062;-72
2020/12/05 02:03:17;;;;;;;13.82;9.18;;;;;;;6.88;70.44;96968.28;5106195;28;20040;-71
2020/12/05 02:05:55;;;;;;;12.97;8.80;;;;;;;6.91;70.80;96968.88;5092251;28;20044;-71
2020/12/05 02:08:40;;;;;;;18.20;8.95;;;;;;;6.92;70.58;96970.56;5093843;28;20336;-72
2020/12/05 02:11:10;;;;;;;14.15;8.98;;;;;;;6.91;70.07;96978.47;5112907;28;20047;-71
2020/12/05 02:13:39;;;;;;;14.15;9.07;;;;;;;7.03;69.74;96969.75;5110927;28;20044;-75
2020/12/05 02:16:06;;;;;;;13.05;8.82;;;;;;;7.01;70.01;96976.84;5111829;28;20063;-71
2020/12/05 02:18:35;;;;;;;12.55;9.05;;;;;;;7.07;69.47;96973.75;5112538;28;20035;-71
2020/12/05 02:21:04;;;;;;;13.35;9.10;;;;;;;7.03;69.98;96966.28;5112647;28;20389;-71
2020/12/05 02:23:31;;;;;;;14.13;9.00;;;;;;;7.23;69.36;96975.22;5112385;28;20039;-71
2020/12/05 02:26:06;;;;;;;13.23;8.93;;;;;;;7.33;68.70;96968.38;5112005;28;20047;-71
2020/12/05 02:28:33;;;;;;;14.15;8.68;;;;;;;7.41;68.57;96973.81;5111336;28;20118;-71
2020/12/05 02:30:59;;;;;;;14.32;7.90;;;;;;;7.37;68.39;96968.94;5111767;28;20040;-71
2020/12/05 02:33:25;;;;;;;14.10;8.98;;;;;;;7.41;68.20;96980.81;5111210;28;20069;-71
2020/12/05 02:35:51;;;;;;;13.85;9.48;;;;;;;7.42;68.06;96977.28;5111047;28;20092;-71
2020/12/05 02:38:25;;;;;;;13.38;8.45;;;;;;;7.37;68.43;96975.00;5112269;28;20578;-71
2020/12/05 02:40:52;;;;;;;12.70;8.35;;;;;;;7.28;69.15;96971.31;5111873;28;20052;-71
2020/12/05 02:43:18;;;;;;;14.05;9.13;;;;;;;7.21;69.43;96969.28;5114052;28;20077;-71
2020/12/05 02:45:44;;;;;;;12.43;8.68;;;;;;;7.09;69.72;96969.28;5115166;28;20079;-72
2020/12/05 02:48:10;;;;;;;14.43;8.52;;;;;;;7.12;69.44;96974.28;5114965;28;20108;-71
2020/12/05 02:50:37;;;;;;;13.82;9.15;;;;;;;6.99;70.39;96970.91;5116100;28;20142;-75
2020/12/05 02:53:03;;;;;;;16.75;9.88;;;;;;;6.76;70.69;96964.81;5116461;28;20474;-71
2020/12/05 02:55:29;;;;;;;12.65;9.15;;;;;;;6.95;70.29;96979.91;5114244;28;20119;-71
2020/12/05 02:57:55;;;;;;;15.02;9.90;;;;;;;6.88;70.65;96989.94;5114841;28;20058;-71
2020/12/05 03:00:22;;;;;;;13.90;8.32;;;;;;;6.91;70.59;96989.72;5116054;28;20043;-73
2020/12/05 03:02:48;;;;;;;13.55;9.13;;;;;;;6.97;70.55;96989.28;5115835;28;20055;-71
2020/12/05 03:05:13;;;;;;;13.13;9.30;;;;;;;6.86;70.71;96977.97;5115793;28;20126;-72
2020/12/05 03:07:39;;;;;;;12.40;9.20;;;;;;;6.82;70.69;96986.03;5116033;28;20138;-75
2020/12/05 03:10:05;;;;;;;14.10;9.32;;;;;;;6.90;70.33;96984.63;5116187;28;20036;-71
2020/12/05 03:12:31;;;;;;;13.00;9.13;;;;;;;7.00;70.00;96985.63;5115912;28;20039;-71
2020/12/05 03:14:57;;;;;;;13.43;9.65;;;;;;;6.95;70.07;96974.69;5115066;27;20063;-72
2020/12/05 03:17:23;;;;;;;13.95;10.13;;;;;;;6.96;70.29;96977.19;5115354;28;20048;-73
2020/12/05 03:19:49;;;;;;;13.40;9.52;;;;;;;6.95;70.22;96970.31;5114572;28;20040;-71
2020/12/05 03:22:15;;;;;;;15.48;9.52;;;;;;;6.91;70.36;96968.88;5115634;28;20530;-72
2020/12/05 03:24:41;;;;;;;14.13;9.48;;;;;;;6.91;70.68;96968.06;5115137;28;20039;-76
2020/12/05 03:27:07;;;;;;;14.10;9.55;;;;;;;6.87;70.74;96975.25;5115021;28;20047;-71
2020/12/05 03:29:33;;;;;;;15.63;9.63;;;;;;;6.89;70.35;96964.72;5115500;28;20051;-71
2020/12/05 03:34:24;;;;;;;13.95;9.48;;;;;;;6.92;70.58;96978.38;5115982;28;20398;-72
2020/12/05 03:36:50;;;;;;;12.88;9.38;;;;;;;6.77;71.22;96977.72;5115082;28;20057;-71
2020/12/05 03:39:16;;;;;;;12.80;8.98;;;;;;;6.77;71.46;96990.75;5115814;28;20043;-71
2020/12/05 03:41:42;;;;;;;13.23;9.73;;;;;;;6.81;71.36;96986.97;5115117;28;20045;-72
2020/12/05 03:44:08;;;;;;;16.17;8.85;;;;;;;6.88;70.72;96996.94;5115230;28;20043;-71
2020/12/05 03:46:35;;;;;;;13.05;8.93;;;;;;;6.76;71.35;96990.84;5115005;28;20051;-71
2020/12/05 03:49:01;;;;;;;14.82;9.35;;;;;;;6.80;71.51;96987.91;5115031;28;20035;-70
2020/12/05 03:51:27;;;;;;;12.32;9.35;;;;;;;6.66;72.04;96980.28;5113980;28;20044;-72
2020/12/05 03:53:53;;;;;;;16.77;10.50;;;;;;;6.69;71.74;96981.81;5113500;27;20075;-71
2020/12/05 03:56:19;;;;;;;12.48;9.52;;;;;;;6.90;70.87;96984.63;5115465;28;20040;-71
2020/12/05 03:58:45;;;;;;;13.50;10.07;;;;;;;6.71;71.67;96987.78;5114664;28;20051;-72
2020/12/05 04:01:11;;;;;;;13.70;10.07;;;;;;;6.89;70.29;96972.53;5114357;28;20040;-72
2020/12/05 04:03:37;;;;;;;15.70;10.15;;;;;;;7.02;70.15;96975.06;5115123;28;20040;-71
2020/12/05 04:06:03;;;;;;;18.35;10.75;;;;;;;6.98;70.58;96980.50;5114677;28;20044;-70
2020/12/05 04:08:29;;;;;;;15.20;9.73;;;;;;;7.12;70.16;96989.91;5114820;28;20530;-70
2020/12/05 04:10:56;;;;;;;15.05;9.63;;;;;;;7.17;69.46;96989.56;5114391;28;20131;-70
2020/12/05 04:13:22;;;;;;;16.65;10.30;;;;;;;7.27;69.14;97000.09;5113464;28;20134;-69
2020/12/05 04:15:48;;;;;;;13.73;9.43;;;;;;;7.21;69.71;96997.97;5114124;28;20071;-71
2020/12/05 04:18:15;;;;;;;13.48;9.45;;;;;;;7.24;69.37;97016.81;5113922;28;20043;-72
2020/12/05 04:20:41;;;;;;;13.40;9.40;;;;;;;7.30;69.27;97036.38;5114903;28;20382;-75
2020/12/05 04:23:07;;;;;;;13.63;9.68;;;;;;;7.15;69.85;97044.41;5113771;28;20051;-70
2020/12/05 04:25:33;;;;;;;14.07;9.77;;;;;;;7.15;69.80;97043.56;5114820;28;20062;-71
2020/12/05 04:27:59;;;;;;;16.88;10.32;;;;;;;7.07;70.12;97051.94;5113933;28;20402;-70
2020/12/05 04:30:25;;;;;;;15.52;11.13;;;;;;;7.04;69.87;97049.56;5114096;28;20084;-70
2020/12/05 04:32:51;;;;;;;15.73;10.95;;;;;;;6.97;70.46;97058.78;5112197;28;20039;-70
2020/12/05 04:35:16;;;;;;;16.30;10.48;;;;;;;6.94;70.59;97054.63;5114596;28;20535;-70
2020/12/05 04:37:42;;;;;;;16.17;10.85;;;;;;;6.91;71.02;97057.47;5114468;28;20059;-74
2020/12/05 04:40:08;;;;;;;15.48;11.15;;;;;;;6.69;71.56;97068.63;5114030;28;20501;-70
2020/12/05 04:42:42;;;;;;;18.15;11.80;;;;;;;6.77;71.51;97061.06;5113189;28;20431;-70
2020/12/05 04:45:08;;;;;;;18.77;12.52;;;;;;;6.61;72.64;97061.38;5113870;28;20402;-72
2020/12/05 04:47:34;;;;;;;17.33;11.45;;;;;;;6.59;72.27;97057.19;5114587;28;20121;-70
2020/12/05 04:50:01;;;;;;;15.05;11.23;;;;;;;6.40;73.14;97061.13;5113710;28;20043;-71
2020/12/05 04:52:51;;;;;;;17.73;11.52;;;;;;;6.21;73.60;97048.59;5114390;28;20122;-70
2020/12/05 04:55:23;;;;;;;16.27;12.07;;;;;;;6.14;73.98;97052.56;5104052;28;20055;-70
2020/12/05 04:57:59;;;;;;;18.85;13.00;;;;;;;5.97;74.45;97040.72;5113452;28;20046;-70
2020/12/05 05:00:26;;;;;;;19.50;13.50;;;;;;;6.10;74.08;97051.09;5114328;28;20039;-71
2020/12/05 05:02:58;;;;;;;19.75;12.73;;;;;;;6.01;74.62;97042.19;5112966;28;20050;-71
2020/12/05 05:05:26;;;;;;;18.75;12.77;;;;;;;5.89;75.20;97046.44;5113113;28;20483;-70
2020/12/05 05:07:55;;;;;;;24.25;15.07;;;;;;;5.87;75.35;97035.31;5113204;28;20104;-71
2020/12/05 05:10:26;;;;;;;22.40;14.38;;;;;;;5.81;76.06;97050.47;5112609;28;20040;-71
2020/12/05 05:13:02;;;;;;;23.52;14.50;;;;;;;5.85;75.21;97047.56;5110002;28;20146;-71
2020/12/05 05:15:30;;;;;;;22.67;13.60;;;;;;;5.80;75.38;97046.25;5111495;28;20047;-71
2020/12/05 05:18:00;;;;;;;21.20;13.95;;;;;;;5.77;75.77;97055.06;5108708;27;20040;-70
2020/12/05 05:20:28;;;;;;;19.92;13.57;;;;;;;5.71;75.82;97047.69;5111308;28;20043;-71
2020/12/05 05:23:17;;;;;;;25.67;14.60;;;;;;;5.61;76.37;97050.09;5113458;28;20126;-71
2020/12/05 05:25:55;;;;;;;21.75;15.02;;;;;;;5.78;75.75;97042.88;5106242;28;20040;-72
2020/12/05 05:28:32;;;;;;;24.02;15.32;;;;;;;5.70;75.75;97044.28;5110973;28;20048;-71
2020/12/05 05:33:45;;;;;;;25.48;16.58;;;;;;;5.42;77.50;97049.66;5111372;28;20036;-72
2020/12/05 05:36:20;;;;;;;24.30;15.57;;;;;;;5.51;76.69;97036.06;5110934;28;20047;-72
2020/12/05 05:39:16;;;;;;;21.20;15.00;;;;;;;5.60;76.64;97040.63;5110587;28;20051;-76
2020/12/05 05:41:47;;;;;;;21.88;16.05;;;;;;;5.52;77.36;97038.53;5092208;28;20044;-75
2020/12/05 05:44:19;;;;;;;23.20;15.30;;;;;;;5.63;76.91;97045.63;5110563;28;20036;-70
2020/12/05 05:46:50;;;;;;;23.30;15.38;;;;;;;5.48;77.28;97036.25;5110133;28;20059;-75
2020/12/05 05:49:29;;;;;;;21.60;14.38;;;;;;;5.56;77.55;97044.34;5113281;28;20054;-71
2020/12/05 05:51:57;;;;;;;23.48;14.50;;;;;;;5.57;77.04;97053.84;5109813;28;20044;-71
2020/12/05 05:54:34;;;;;;;24.42;14.55;;;;;;;5.73;76.38;97054.47;5113153;28;20054;-71
2020/12/05 05:57:06;;;;;;;22.13;14.95;;;;;;;5.65;76.87;97061.13;5106364;28;20043;-71
2020/12/05 05:59:43;;;;;;;26.58;16.00;;;;;;;5.55;77.18;97063.50;5092764;28;20052;-71
2020/12/05 06:02:14;;;;;;;22.40;14.02;;;;;;;5.63;76.85;97058.63;5110303;28;20040;-72
2020/12/05 06:04:42;;;;;;;24.02;14.13;;;;;;;5.54;77.63;97059.25;5110815;28;20100;-71
2020/12/05 06:07:12;;;;;;;23.65;15.70;;;;;;;5.46;77.63;97056.34;5110071;28;20220;-72
2020/12/05 06:09:42;;;;;;;26.08;16.10;;;;;;;5.55;76.91;97048.75;5108388;28;20043;-72
2020/12/05 06:12:29;;;;;;;24.63;15.32;;;;;;;5.46;77.52;97059.75;5109231;28;20035;-72
2020/12/05 06:14:55;;;;;;;25.23;15.73;;;;;;;5.42;78.02;97066.09;5109629;28;20031;-72
2020/12/05 06:17:25;;;;;;;24.88;16.50;;;;;;;5.36;78.64;97075.16;5111037;28;20047;-72
2020/12/05 06:19:55;;;;;;;26.67;15.57;;;;;;;5.66;77.29;97078.38;5110948;28;20067;-74
2020/12/05 06:22:43;;;;;;;27.10;15.80;;;;;;;5.54;77.79;97093.84;5110431;28;20505;-71
2020/12/05 06:25:11;;;;;;;29.00;16.52;;;;;;;5.71;77.04;97097.09;5108464;28;20078;-74
2020/12/05 06:27:41;;;;;;;25.17;15.13;;;;;;;5.70;77.25;97093.69;5110505;28;20036;-71
2020/12/05 06:30:08;;;;;;;26.30;16.23;;;;;;;5.67;77.10;97090.44;5111155;28;20044;-72
2020/12/05 06:32:39;;;;;;;25.10;15.25;;;;;;;5.62;77.56;97088.13;5112456;28;20483;-71
2020/12/05 06:35:25;;;;;;;27.98;17.15;;;;;;;5.70;77.17;97096.28;5111002;28;20395;-71
2020/12/05 06:37:53;;;;;;;26.58;16.63;;;;;;;5.60;77.84;97094.41;5111429;28;20039;-73
2020/12/05 06:40:20;;;;;;;26.30;16.50;;;;;;;5.67;77.48;97101.69;5111769;28;20109;-71
2020/12/05 06:42:48;;;;;;;25.55;17.17;;;;;;;5.48;77.85;97101.25;5111656;28;20055;-71
2020/12/05 06:45:26;;;;;;;30.10;18.75;;;;;;;5.50;78.25;97100.22;5109820;28;20044;-73
2020/12/05 06:47:52;;;;;;;30.25;18.48;;;;;;;5.61;77.52;97107.31;5111190;28;20073;-74
2020/12/05 06:50:40;;;;;;;32.58;17.52;;;;;;;5.76;76.98;97115.00;5111055;28;20079;-72
2020/12/05 06:53:26;;;;;;;31.13;16.88;;;;;;;6.11;75.47;97120.41;5091449;28;20055;-71
2020/12/05 06:55:54;;;;;;;28.40;15.73;;;;;;;6.45;73.79;97118.06;5093264;28;20394;-74
2020/12/05 06:58:31;;;;;;;26.30;14.45;;;;;;;6.64;73.11;97112.38;5111129;28;20040;-70
2020/12/05 07:00:58;;;;;;;22.17;13.48;;;;;;;6.51;73.89;97103.78;5109625;28;20505;-71
2020/12/05 07:03:29;;;;;;;24.58;14.38;;;;;;;6.78;72.99;97107.03;5112301;28;20050;-74
2020/12/05 07:05:56;;;;;;;23.52;14.38;;;;;;;6.51;73.81;97094.19;5108938;28;20044;-72
2020/12/05 07:08:24;;;;;;;26.63;15.07;;;;;;;6.64;73.63;97107.16;5112350;28;20093;-72
2020/12/05 07:10:59;;;;;;;26.98;15.68;;;;;;;6.51;74.13;97111.59;5110534;28;20043;-72
2020/12/05 07:13:37;;;;;;;27.17;15.98;;;;;;;6.37;74.29;97113.41;5112042;28;20123;-72
2020/12/05 07:16:19;;;;;;;31.35;17.33;;;;;;;6.27;74.81;97115.81;5109801;28;20092;-72
2020/12/05 07:18:54;;;;;;;27.92;17.27;;;;;;;6.43;74.03;97105.16;5110874;28;20115;-70
2020/12/05 07:21:21;;;;;;;28.42;15.88;;;;;;;6.51;73.75;97112.44;5109256;28;20406;-70
2020/12/05 07:23:48;;;;;;;29.85;15.25;;;;;;;6.52;74.12;97111.50;5108667;28;20115;-72
2020/12/05 07:26:15;;;;;;;28.20;16.42;;;;;;;6.33;75.05;97116.31;5109046;28;20047;-71
2020/12/05 07:28:59;;;;;;;29.35;16.65;;;;;;;6.38;74.82;97114.22;5112217;28;20123;-72
2020/12/05 07:31:29;;;;;;;27.48;16.55;;;;;;;6.27;75.04;97102.81;5113032;28;20051;-71
2020/12/05 07:33:56;;;;;;;29.33;16.45;;;;;;;6.15;75.96;97115.81;5114242;28;20044;-75
2020/12/05 07:36:22;;;;;;;28.92;16.08;;;;;;;6.33;74.67;97101.53;5112181;28;20550;-71
2020/12/05 07:38:50;;;;;;;27.75;15.40;;;;;;;6.54;73.84;97100.97;5114738;28;20048;-70
2020/12/05 07:41:17;;;;;;;27.15;15.57;;;;;;;6.76;73.25;97111.50;5114117;28;20050;-71
2020/12/05 07:43:43;;;;;;;30.33;16.70;;;;;;;6.97;72.70;97118.72;5111050;28;20040;-71
2020/12/05 07:46:12;;;;;;;30.40;16.25;;;;;;;7.03;72.17;97118.28;5114614;28;20103;-72
2020/12/05 07:48:39;;;;;;;32.28;17.38;;;;;;;7.04;71.95;97112.09;5112976;28;20040;-72
2020/12/05 07:51:12;;;;;;;29.88;16.58;;;;;;;7.22;71.82;97124.75;5112366;28;20043;-72
2020/12/05 07:53:38;;;;;;;29.85;16.45;;;;;;;7.21;72.18;97130.91;5115480;28;20051;-72
2020/12/05 07:56:19;;;;;;;23.88;14.65;;;;;;;7.33;71.37;97130.00;5114193;28;20047;-72
2020/12/05 07:58:52;;;;;;;20.90;13.18;;;;;;;7.47;70.76;97134.19;5115398;28;20047;-72
2020/12/05 08:02:01;;;;;;;17.35;11.30;;;;;;;7.69;69.80;97134.25;5112189;28;20128;-72
2020/12/05 08:04:45;;;;;;;17.17;11.65;;;;;;;7.80;69.30;97133.47;5114263;28;20071;-72
2020/12/05 08:07:37;;;;;;;18.95;11.32;;;;;;;7.80;69.41;97140.44;5109759;28;20044;-70
2020/12/05 08:10:15;;;;;;;21.23;11.90;;;;;;;8.01;68.51;97143.19;5114627;28;20051;-72
2020/12/05 08:12:44;;;;;;;16.60;11.32;;;;;;;8.10;68.10;97155.53;5113074;28;20040;-70
2020/12/05 08:15:18;;;;;;;14.35;10.93;;;;;;;8.02;68.66;97142.25;5113524;28;20093;-71
2020/12/05 08:17:45;;;;;;;15.38;10.55;;;;;;;8.13;68.21;97155.31;5115048;28;20040;-72
2020/12/05 08:20:13;;;;;;;18.67;11.40;;;;;;;8.23;68.21;97158.03;5110440;28;20120;-72
2020/12/05 08:22:39;;;;;;;17.65;11.48;;;;;;;8.19;68.10;97154.84;5113204;28;20528;-73
2020/12/05 08:25:06;;;;;;;19.45;12.38;;;;;;;8.20;67.95;97166.97;5111124;28;20048;-74
2020/12/05 08:27:33;;;;;;;20.40;11.75;;;;;;;8.18;68.26;97175.84;5114075;28;20044;-72
2020/12/05 08:30:00;;;;;;;19.45;12.35;;;;;;;8.24;67.75;97170.97;5113140;28;20050;-76
2020/12/05 08:32:26;;;;;;;21.42;13.40;;;;;;;8.30;67.87;97174.91;5114215;28;20460;-71
2020/12/05 08:35:09;;;;;;;23.77;14.38;;;;;;;8.07;69.08;97172.25;5113853;28;20447;-71
2020/12/05 08:37:42;;;;;;;22.88;14.80;;;;;;;8.08;69.39;97173.13;5110877;28;20055;-73
2020/12/05 08:40:17;;;;;;;20.85;13.50;;;;;;;8.00;69.56;97171.09;5092991;28;20444;-71
2020/12/05 08:42:47;;;;;;;21.13;13.45;;;;;;;7.99;69.48;97179.84;5095344;28;20052;-72
2020/12/05 08:45:15;;;;;;;19.98;12.45;;;;;;;8.05;68.75;97182.00;5112203;28;20513;-71
2020/12/05 08:47:50;;;;;;;19.27;12.88;;;;;;;8.04;68.66;97188.16;5114213;28;20071;-73
2020/12/05 08:50:27;;;;;;;24.58;12.77;;;;;;;8.02;69.08;97195.28;5096461;28;20388;-72
2020/12/05 08:52:56;;;;;;;22.05;13.55;;;;;;;7.87;69.94;97184.22;5114164;28;20039;-71
2020/12/05 08:55:28;;;;;;;24.75;14.10;;;;;;;8.00;69.34;97205.03;5113121;28;20035;-71
2020/12/05 08:57:59;;;;;;;22.55;14.07;;;;;;;7.88;70.54;97198.94;5114267;28;20184;-71
2020/12/05 09:00:28;;;;;;;21.33;13.82;;;;;;;7.92;69.96;97204.75;5112436;28;20036;-72
2020/12/05 09:02:54;;;;;;;24.42;14.95;;;;;;;7.85;70.37;97209.59;5096324;28;20043;-72
2020/12/05 09:05:21;;;;;;;22.58;15.18;;;;;;;7.82;70.80;97209.81;5093619;28;20043;-72
2020/12/05 09:07:56;;;;;;;21.08;13.90;;;;;;;7.83;70.13;97208.88;5111417;28;20035;-71
2020/12/05 09:10:23;;;;;;;23.42;13.82;;;;;;;7.86;69.93;97199.97;5113783;28;20474;-71
2020/12/05 09:12:50;;;;;;;22.30;13.80;;;;;;;8.09;68.93;97213.91;5111156;28;20122;-74
2020/12/05 09:15:18;;;;;;;20.67;13.05;;;;;;;8.08;69.27;97220.09;5105855;28;20506;-73
2020/12/05 09:17:44;;;;;;;19.23;12.82;;;;;;;8.15;68.57;97216.06;5113271;28;20067;-72
2020/12/05 09:20:18;;;;;;;19.83;12.50;;;;;;;8.20;68.77;97206.13;5111066;28;20482;-71
2020/12/05 09:22:48;;;;;;;19.88;12.63;;;;;;;8.23;68.42;97210.25;5106754;28;20092;-71
2020/12/05 09:25:36;;;;;;;21.70;13.00;;;;;;;8.33;68.07;97203.41;5112197;28;20126;-73
2020/12/05 09:28:08;;;;;;;22.50;13.30;;;;;;;8.41;67.68;97201.00;5110718;28;20101;-73
2020/12/05 09:30:35;;;;;;;22.90;13.35;;;;;;;8.46;67.41;97195.47;5112169;28;20040;-75
2020/12/05 09:33:08;;;;;;;28.55;15.50;;;;;;;8.53;67.08;97191.44;5110648;28;20043;-75
2020/12/05 09:35:35;;;;;;;23.25;14.27;;;;;;;8.55;66.91;97196.53;5112247;28;20054;-72
2020/12/05 09:38:02;;;;;;;25.40;14.02;;;;;;;8.69;66.66;97200.69;5113513;28;20048;-76
2020/12/05 09:40:30;;;;;;;24.88;14.35;;;;;;;8.80;66.11;97199.84;5108778;28;20101;-73
2020/12/05 09:42:58;;;;;;;24.30;14.13;;;;;;;8.80;66.20;97208.50;5112783;28;20130;-72
2020/12/05 09:45:24;;;;;;;22.02;13.50;;;;;;;8.81;66.19;97206.75;5109889;28;20112;-72
2020/12/05 09:47:51;;;;;;;21.08;12.38;;;;;;;8.86;65.83;97210.66;5109450;28;20063;-71
2020/12/05 09:50:17;;;;;;;18.35;11.65;;;;;;;8.88;65.92;97207.91;5110748;28;20077;-72
2020/12/05 09:52:43;;;;;;;17.05;11.85;;;;;;;8.89;65.62;97213.00;5112852;28;20040;-72
2020/12/05 09:55:10;;;;;;;21.88;12.98;;;;;;;8.95;65.36;97215.16;5109337;28;20039;-71
2020/12/05 09:57:36;;;;;;;23.42;13.63;;;;;;;8.87;66.05;97214.09;5112990;28;20489;-72
2020/12/05 10:00:09;;;;;;;24.13;13.45;;;;;;;8.95;65.82;97220.38;5111407;28;20053;-76
2020/12/05 10:02:39;;;;;;;22.13;13.38;;;;;;;8.84;65.61;97216.97;5110896;28;20081;-72
2020/12/05 10:05:07;;;;;;;21.55;14.00;;;;;;;9.01;65.78;97236.56;5109848;28;20097;-73
2020/12/05 10:07:33;;;;;;;24.90;13.77;;;;;;;8.85;66.31;97227.31;5111910;28;20047;-72
2020/12/05 10:09:59;;;;;;;24.63;14.60;;;;;;;8.86;66.96;97235.97;5110501;28;20488;-71
2020/12/05 10:12:25;;;;;;;22.98;13.75;;;;;;;8.86;66.14;97231.56;5110604;28;20047;-73
2020/12/05 10:14:50;;;;;;;21.10;13.35;;;;;;;8.95;65.94;97254.34;5108839;28;20046;-72
2020/12/05 10:17:16;;;;;;;23.75;14.40;;;;;;;8.90;66.45;97237.38;5111913;28;20043;-72
2020/12/05 10:19:42;;;;;;;20.38;13.73;;;;;;;8.93;66.30;97237.16;5109189;28;20067;-72
2020/12/05 10:22:08;;;;;;;21.60;13.68;;;;;;;8.99;66.75;97246.28;5112094;28;20124;-72
2020/12/05 10:24:34;;;;;;;21.92;14.02;;;;;;;9.15;65.98;97236.28;5111813;28;20512;-71
2020/12/05 10:27:00;;;;;;;20.17;12.85;;;;;;;9.22;65.42;97247.91;5108482;28;20051;-72
2020/12/05 10:29:25;;;;;;;18.88;12.43;;;;;;;9.34;64.69;97229.56;5112079;28;20039;-72
2020/12/05 10:31:53;;;;;;;17.40;11.52;;;;;;;9.30;65.09;97223.78;5110831;28;20403;-72
2020/12/05 10:34:21;;;;;;;20.77;12.48;;;;;;;9.42;64.58;97241.09;5110878;28;20062;-72
2020/12/05 10:36:47;;;;;;;19.83;13.40;;;;;;;9.45;64.31;97237.38;5111774;28;20074;-73
2020/12/05 10:39:13;;;;;;;22.02;13.35;;;;;;;9.49;64.61;97244.03;5111748;28;20403;-73
2020/12/05 10:41:42;;;;;;;26.42;14.77;;;;;;;9.46;64.40;97241.66;5109288;28;20444;-74
2020/12/05 10:44:10;;;;;;;26.20;15.18;;;;;;;9.57;64.57;97249.47;5095213;28;20124;-73
2020/12/05 10:46:44;;;;;;;25.30;15.65;;;;;;;9.52;65.07;97238.56;5112402;28;20051;-73
2020/12/05 10:49:12;;;;;;;31.02;16.27;;;;;;;9.42;65.13;97232.41;5108822;28;20044;-72
2020/12/05 10:51:38;;;;;;;29.30;15.18;;;;;;;9.53;64.49;97245.47;5109318;28;20394;-72
2020/12/05 10:54:06;;;;;;;26.60;15.05;;;;;;;9.50;64.78;97245.72;5110008;28;20475;-74
2020/12/05 10:56:34;;;;;;;25.85;14.93;;;;;;;9.39;65.20;97241.34;5112300;28;20434;-72
2020/12/05 10:59:00;;;;;;;24.92;13.80;;;;;;;9.47;65.51;97240.72;5110282;28;20124;-71
2020/12/05 11:01:25;;;;;;;19.55;12.65;;;;;;;9.25;66.10;97244.22;5109852;28;20084;-72
2020/12/05 11:03:51;;;;;;;18.48;12.93;;;;;;;9.27;65.38;97240.53;5113173;28;20039;-72
2020/12/05 11:06:21;;;;;;;19.23;12.55;;;;;;;9.30;65.40;97234.22;5113585;28;20043;-70
2020/12/05 11:08:47;;;;;;;20.88;13.18;;;;;;;9.25;66.57;97237.22;5114047;28;20071;-71
2020/12/05 11:11:14;;;;;;;21.45;13.25;;;;;;;9.30;66.45;97236.84;5114400;28;20061;-72
2020/12/05 11:13:39;;;;;;;22.52;14.45;;;;;;;9.17;66.07;97244.81;5115090;28;20059;-72
2020/12/05 11:16:05;;;;;;;23.50;14.45;;;;;;;9.16;66.30;97248.41;5116170;28;20043;-71
2020/12/05 11:18:31;;;;;;;30.40;15.68;;;;;;;9.25;66.32;97257.28;5113788;28;20053;-71
2020/12/05 11:20:57;;;;;;;27.88;14.75;;;;;;;9.12;67.04;97260.06;5115006;28;20127;-70
2020/12/05 11:23:22;;;;;;;22.08;14.82;;;;;;;9.11;66.64;97254.00;5115718;28;20047;-71
2020/12/05 11:25:48;;;;;;;24.80;15.95;;;;;;;9.21;66.44;97256.72;5113614;28;20048;-73
2020/12/05 11:28:14;;;;;;;25.13;15.75;;;;;;;9.19;65.89;97256.00;5112348;28;20409;-73
2020/12/05 11:30:40;;;;;;;25.35;15.98;;;;;;;9.14;66.68;97265.97;5110050;28;20505;-72
2020/12/05 11:33:06;;;;;;;28.02;16.15;;;;;;;9.07;66.63;97249.97;5114840;28;20054;-73
2020/12/05 11:35:32;;;;;;;27.75;16.15;;;;;;;9.19;65.96;97261.25;5114021;28;20039;-71
2020/12/05 11:37:57;;;;;;;25.45;16.08;;;;;;;9.07;67.30;97263.03;5112000;28;20250;-73
2020/12/05 11:40:23;;;;;;;27.88;15.73;;;;;;;9.14;66.32;97258.13;5112947;27;20461;-73